Larkspur — C6BR6 — position and weather

sailwx.info

Track history (hours):
 
Tides and Currents Weather Stations Pressure Air Temp Water Temp Dewpoint Dewpoint Depression Visibility Wind Speed Wind Dir Waves Ship Positions

Larkspur

Operator: Transeuropa Lines

Last reported at 2020-Mar-08 05:55 UTC. Time now 2020-Apr-06 09:37 UTC.
Position N 26°48' W 093°35'.
Warning: this ship's position is 29 days out of date.

Length 225 m; draft 11.9 m.

Type: Tanker. MMSI: 311000344.

Date/timePositionNaut miles runAvg speedWind from/ knotsBaromVisibWave heightAir tempDewpointWater temp
2020-Mar-08 05:55N 26°48' W 093°35'714.6
2020-Mar-08 05:25N 26°54' W 093°40'714.5
2020-Mar-08 04:56N 26°60' W 093°45'13613.3
2020-Mar-07 18:40N 29°10' W 094°30'711.1
2020-Mar-07 18:00N 29°16' W 094°35'5 9.7
2020-Mar-07 17:30N 29°19' W 094°39'24 9.5
2020-Mar-07 15:00N 29°37' W 094°57'5 9.3
2020-Mar-07 14:30N 29°41' W 094°59'3 6.9
2020-Mar-07 14:00N 29°44' W 095°02'3 6.2
2020-Mar-07 13:30N 29°46' W 095°04'3 2.9
2020-Mar-07 12:28N 29°44' W 095°08'0 0.0
2020-Mar-07 10:49N 29°44' W 095°08'0 0.0
2020-Mar-07 10:04N 29°44' W 095°08'0 0.0
2020-Mar-07 09:25N 29°44' W 095°08'0 0.0
2020-Mar-07 08:28N 29°44' W 095°08'0 0.0
2020-Mar-07 04:55N 29°44' W 095°08'0 0.0
2020-Mar-07 03:58N 29°44' W 095°08'0 0.0
2020-Mar-07 02:25N 29°44' W 095°08'0 0.0
2020-Mar-06 23:07N 29°44' W 095°08'0 0.0
2020-Mar-06 22:22N 29°44' W 095°08'0 0.0
2020-Mar-06 18:55N 29°44' W 095°08'0 0.0
2020-Mar-06 17:49N 29°44' W 095°08'0 0.0
2020-Mar-06 15:43N 29°44' W 095°08'0 0.0
2020-Mar-06 13:37N 29°44' W 095°08'0 0.0
2020-Mar-06 12:43N 29°44' W 095°08'0 0.0
2020-Mar-06 09:25N 29°44' W 095°08'0 0.0
2020-Mar-06 08:28N 29°44' W 095°08'0 0.0
2020-Mar-06 06:52N 29°44' W 095°08'0 0.0
2020-Mar-06 06:25N 29°44' W 095°08'0 0.0
2020-Mar-06 05:28N 29°44' W 095°08'0 0.0
2020-Mar-06 03:55N 29°44' W 095°08'0 0.0
2020-Mar-06 03:01N 29°44' W 095°08'0 0.0
2020-Mar-06 01:28N 29°44' W 095°08'0 0.0
2020-Mar-06 00:49N 29°44' W 095°08'0 0.0
2020-Mar-05 23:55N 29°44' W 095°08'0 0.0
2020-Mar-05 22:49N 29°44' W 095°08'0 0.0
2020-Mar-05 21:55N 29°44' W 095°08'0 0.0
2020-Mar-05 18:49N 29°44' W 095°08'0 0.0
2020-Mar-05 14:55N 29°44' W 095°08'0 0.0
2020-Mar-05 11:43N 29°44' W 095°08'0 0.0
2020-Mar-05 10:46N 29°44' W 095°08'0 0.0
2020-Mar-05 05:58N 29°44' W 095°08'0 0.0
2020-Mar-05 05:22N 29°44' W 095°08'0 0.0
2020-Mar-05 03:46N 29°44' W 095°08'0 0.0
2020-Mar-05 01:28N 29°44' W 095°08'0 0.0
2020-Mar-04 22:34N 29°44' W 095°08'0 0.0
2020-Mar-04 21:19N 29°44' W 095°08'0 0.0
2020-Mar-04 18:55N 29°44' W 095°08'0 0.0
2020-Mar-04 16:31N 29°44' W 095°08'0 0.0
2020-Mar-04 15:55N 29°44' W 095°08'0 0.0
2020-Mar-04 15:07N 29°44' W 095°08'0 0.0
2020-Mar-04 12:55N 29°44' W 095°08'0 0.0
2020-Mar-04 09:46N 29°44' W 095°08'0 0.0
2020-Mar-04 04:19N 29°44' W 095°08'0 0.0
2020-Mar-04 03:28N 29°44' W 095°08'0 0.0
2020-Mar-04 02:49N 29°44' W 095°08'1 0.5
2020-Mar-04 00:52N 29°44' W 095°09'0 0.0
2020-Mar-03 22:58N 29°44' W 095°09'0 0.0
2020-Mar-03 21:55N 29°44' W 095°09'0 0.0
2020-Mar-03 18:22N 29°44' W 095°09'0 0.0
2020-Mar-03 17:49N 29°44' W 095°09'0 0.0
2020-Mar-03 16:25N 29°44' W 095°09'0 0.0
2020-Mar-03 08:25N 29°44' W 095°09'0 0.0
2020-Mar-03 05:49N 29°44' W 095°09'0 0.0
2020-Mar-03 03:58N 29°44' W 095°09'0 0.0
2020-Mar-03 02:58N 29°44' W 095°09'0 0.0
2020-Mar-03 02:19N 29°44' W 095°09'0 0.0
2020-Mar-03 01:19N 29°44' W 095°09'0 0.5
2020-Mar-03 01:00N 29°44' W 095°09'4 4.0
2020-Mar-03 00:01N 29°46' W 095°04'4 7.5
2020-Mar-02 23:30N 29°43' W 095°01'1811.9
2020-Mar-02 22:00N 29°27' W 094°51'23 4.0
2020-Mar-02 16:23N 29°11' W 094°33'0 0.0
2020-Mar-02 08:20N 29°11' W 094°33'0 0.0
2020-Mar-02 01:23N 29°11' W 094°33'0 0.0
2020-Mar-02 00:26N 29°11' W 094°33'0 0.0
2020-Mar-01 23:53N 29°11' W 094°33'0 0.0
2020-Mar-01 18:26N 29°11' W 094°33'0 0.0
2020-Mar-01 17:59N 29°11' W 094°33'0 0.0
2020-Mar-01 14:29N 29°11' W 094°33'0 0.0
2020-Mar-01 12:59N 29°11' W 094°33'0 0.0
2020-Mar-01 11:59N 29°11' W 094°33'0 0.0
2020-Mar-01 09:58N 29°11' W 094°33'0 0.0
2020-Mar-01 06:58N 29°11' W 094°33'0 0.0
2020-Mar-01 06:29N 29°11' W 094°33'0 0.0
2020-Mar-01 04:29N 29°11' W 094°33'0 0.0
2020-Mar-01 03:28N 29°11' W 094°33'0 0.0
2020-Mar-01 02:28N 29°11' W 094°33'0 0.0
2020-Mar-01 01:29N 29°11' W 094°33'0 0.0
2020-Feb-29 22:28N 29°11' W 094°33'0 0.0
2020-Feb-29 21:58N 29°11' W 094°33'0 0.0
2020-Feb-29 20:28N 29°11' W 094°33'0 0.0
2020-Feb-29 17:28N 29°11' W 094°33'0 0.0
2020-Feb-29 16:58N 29°11' W 094°33'0 0.0
2020-Feb-29 14:58N 29°11' W 094°33'0 0.0
2020-Feb-29 14:28N 29°11' W 094°33'0 0.0
2020-Feb-29 13:58N 29°11' W 094°33'0 0.0
2020-Feb-29 13:28N 29°11' W 094°33'0 0.0
2020-Feb-29 12:58N 29°11' W 094°33'0 0.0
2020-Feb-29 11:58N 29°11' W 094°33'0 0.0
2020-Feb-29 10:58N 29°11' W 094°33'0 0.0
2020-Feb-29 09:58N 29°11' W 094°33'0 0.0
2020-Feb-29 08:58N 29°11' W 094°33'0 0.0
2020-Feb-29 08:28N 29°11' W 094°33'0 0.0
2020-Feb-29 06:28N 29°11' W 094°33'0 0.0
2020-Feb-29 05:58N 29°11' W 094°33'0 0.0
2020-Feb-29 02:28N 29°11' W 094°33'0 0.0
2020-Feb-29 01:28N 29°11' W 094°33'21 4.3
2020-Feb-28 20:30N 28°51' W 094°25'  
Track history (hours):
 
Tides and Currents Weather Stations Pressure Air Temp Water Temp Dewpoint Dewpoint Depression Visibility Wind Speed Wind Dir Waves Ship Positions

Larkspur

Operator: Transeuropa Lines

Last reported at 2020-Mar-08 05:55 UTC. Time now 2020-Apr-06 09:37 UTC.
Position N 26°48' W 093°35'.
Warning: this ship's position is 29 days out of date.

Length 225 m; draft 11.9 m.

Type: Tanker. MMSI: 311000344.

Date/timePositionNaut miles runAvg speedWind from/ knotsBaromVisibWave heightAir tempDewpointWater temp
2020-Mar-08 05:55N 26°48' W 093°35'714.6
2020-Mar-08 05:25N 26°54' W 093°40'714.5
2020-Mar-08 04:56N 26°60' W 093°45'13613.3
2020-Mar-07 18:40N 29°10' W 094°30'711.1
2020-Mar-07 18:00N 29°16' W 094°35'5 9.7
2020-Mar-07 17:30N 29°19' W 094°39'24 9.5
2020-Mar-07 15:00N 29°37' W 094°57'5 9.3
2020-Mar-07 14:30N 29°41' W 094°59'3 6.9
2020-Mar-07 14:00N 29°44' W 095°02'3 6.2
2020-Mar-07 13:30N 29°46' W 095°04'3 2.9
2020-Mar-07 12:28N 29°44' W 095°08'0 0.0
2020-Mar-07 10:49N 29°44' W 095°08'0 0.0
2020-Mar-07 10:04N 29°44' W 095°08'0 0.0
2020-Mar-07 09:25N 29°44' W 095°08'0 0.0
2020-Mar-07 08:28N 29°44' W 095°08'0 0.0
2020-Mar-07 04:55N 29°44' W 095°08'0 0.0
2020-Mar-07 03:58N 29°44' W 095°08'0 0.0
2020-Mar-07 02:25N 29°44' W 095°08'0 0.0
2020-Mar-06 23:07N 29°44' W 095°08'0 0.0
2020-Mar-06 22:22N 29°44' W 095°08'0 0.0
2020-Mar-06 18:55N 29°44' W 095°08'0 0.0
2020-Mar-06 17:49N 29°44' W 095°08'0 0.0
2020-Mar-06 15:43N 29°44' W 095°08'0 0.0
2020-Mar-06 13:37N 29°44' W 095°08'0 0.0
2020-Mar-06 12:43N 29°44' W 095°08'0 0.0
2020-Mar-06 09:25N 29°44' W 095°08'0 0.0
2020-Mar-06 08:28N 29°44' W 095°08'0 0.0
2020-Mar-06 06:52N 29°44' W 095°08'0 0.0
2020-Mar-06 06:25N 29°44' W 095°08'0 0.0
2020-Mar-06 05:28N 29°44' W 095°08'0 0.0
2020-Mar-06 03:55N 29°44' W 095°08'0 0.0
2020-Mar-06 03:01N 29°44' W 095°08'0 0.0
2020-Mar-06 01:28N 29°44' W 095°08'0 0.0
2020-Mar-06 00:49N 29°44' W 095°08'0 0.0
2020-Mar-05 23:55N 29°44' W 095°08'0 0.0
2020-Mar-05 22:49N 29°44' W 095°08'0 0.0
2020-Mar-05 21:55N 29°44' W 095°08'0 0.0
2020-Mar-05 18:49N 29°44' W 095°08'0 0.0
2020-Mar-05 14:55N 29°44' W 095°08'0 0.0
2020-Mar-05 11:43N 29°44' W 095°08'0 0.0
2020-Mar-05 10:46N 29°44' W 095°08'0 0.0
2020-Mar-05 05:58N 29°44' W 095°08'0 0.0
2020-Mar-05 05:22N 29°44' W 095°08'0 0.0
2020-Mar-05 03:46N 29°44' W 095°08'0 0.0
2020-Mar-05 01:28N 29°44' W 095°08'0 0.0
2020-Mar-04 22:34N 29°44' W 095°08'0 0.0
2020-Mar-04 21:19N 29°44' W 095°08'0 0.0
2020-Mar-04 18:55N 29°44' W 095°08'0 0.0
2020-Mar-04 16:31N 29°44' W 095°08'0 0.0
2020-Mar-04 15:55N 29°44' W 095°08'0 0.0
2020-Mar-04 15:07N 29°44' W 095°08'0 0.0
2020-Mar-04 12:55N 29°44' W 095°08'0 0.0
2020-Mar-04 09:46N 29°44' W 095°08'0 0.0
2020-Mar-04 04:19N 29°44' W 095°08'0 0.0
2020-Mar-04 03:28N 29°44' W 095°08'0 0.0
2020-Mar-04 02:49N 29°44' W 095°08'1 0.5
2020-Mar-04 00:52N 29°44' W 095°09'0 0.0
2020-Mar-03 22:58N 29°44' W 095°09'0 0.0
2020-Mar-03 21:55N 29°44' W 095°09'0 0.0
2020-Mar-03 18:22N 29°44' W 095°09'0 0.0
2020-Mar-03 17:49N 29°44' W 095°09'0 0.0
2020-Mar-03 16:25N 29°44' W 095°09'0 0.0
2020-Mar-03 08:25N 29°44' W 095°09'0 0.0
2020-Mar-03 05:49N 29°44' W 095°09'0 0.0
2020-Mar-03 03:58N 29°44' W 095°09'0 0.0
2020-Mar-03 02:58N 29°44' W 095°09'0 0.0
2020-Mar-03 02:19N 29°44' W 095°09'0 0.0
2020-Mar-03 01:19N 29°44' W 095°09'0 0.5
2020-Mar-03 01:00N 29°44' W 095°09'4 4.0
2020-Mar-03 00:01N 29°46' W 095°04'4 7.5
2020-Mar-02 23:30N 29°43' W 095°01'1811.9
2020-Mar-02 22:00N 29°27' W 094°51'23 4.0
2020-Mar-02 16:23N 29°11' W 094°33'0 0.0
2020-Mar-02 08:20N 29°11' W 094°33'0 0.0
2020-Mar-02 01:23N 29°11' W 094°33'0 0.0
2020-Mar-02 00:26N 29°11' W 094°33'0 0.0
2020-Mar-01 23:53N 29°11' W 094°33'0 0.0
2020-Mar-01 18:26N 29°11' W 094°33'0 0.0
2020-Mar-01 17:59N 29°11' W 094°33'0 0.0
2020-Mar-01 14:29N 29°11' W 094°33'0 0.0
2020-Mar-01 12:59N 29°11' W 094°33'0 0.0
2020-Mar-01 11:59N 29°11' W 094°33'0 0.0
2020-Mar-01 09:58N 29°11' W 094°33'0 0.0
2020-Mar-01 06:58N 29°11' W 094°33'0 0.0
2020-Mar-01 06:29N 29°11' W 094°33'0 0.0
2020-Mar-01 04:29N 29°11' W 094°33'0 0.0
2020-Mar-01 03:28N 29°11' W 094°33'0 0.0
2020-Mar-01 02:28N 29°11' W 094°33'0 0.0
2020-Mar-01 01:29N 29°11' W 094°33'0 0.0
2020-Feb-29 22:28N 29°11' W 094°33'0 0.0
2020-Feb-29 21:58N 29°11' W 094°33'0 0.0
2020-Feb-29 20:28N 29°11' W 094°33'0 0.0
2020-Feb-29 17:28N 29°11' W 094°33'0 0.0
2020-Feb-29 16:58N 29°11' W 094°33'0 0.0
2020-Feb-29 14:58N 29°11' W 094°33'0 0.0
2020-Feb-29 14:28N 29°11' W 094°33'0 0.0
2020-Feb-29 13:58N 29°11' W 094°33'0 0.0
2020-Feb-29 13:28N 29°11' W 094°33'0 0.0
2020-Feb-29 12:58N 29°11' W 094°33'0 0.0
2020-Feb-29 11:58N 29°11' W 094°33'0 0.0
2020-Feb-29 10:58N 29°11' W 094°33'0 0.0
2020-Feb-29 09:58N 29°11' W 094°33'0 0.0
2020-Feb-29 08:58N 29°11' W 094°33'0 0.0
2020-Feb-29 08:28N 29°11' W 094°33'0 0.0
2020-Feb-29 06:28N 29°11' W 094°33'0 0.0
2020-Feb-29 05:58N 29°11' W 094°33'0 0.0
2020-Feb-29 02:28N 29°11' W 094°33'0 0.0
2020-Feb-29 01:28N 29°11' W 094°33'21 4.3
2020-Feb-28 20:30N 28°51' W 094°25'  

Dump ship's entire track history